Página principal
METAR-TAF:

METAR-TAF

Aeroportos :

Oban, Escócia

latitude: 56-27-49N, longitude: 5-24-00W, altura: 7 m

Observação actual do tempo

O boletim foi feito há 2 horas e 9 minutos, às 15:50 UTC
Vento 12 kt de su-sudoeste
Temperatura 12°C
Humidade 88%
Pressão 1023 hPa
Visibilidade: 6000 m
Poucas nuvensa uma altura de 1100 ft
Encobertoa uma altura de 1500 ft
chuvisco fraco

METAR: EGEO 201550Z 21012KT 6000 -DZ FEW011 OVC015 12/10 Q1023

Hora: 17:59 (17:59 UTC)

Previsão

O boletim foi feito há 3 horas e 3 minutos, às 14:56 UTC
Previsão válida de 20 às 15 UTC a 20 às 17 UTC
Vento 15 kt de su-sudoeste
Visibilidade 10 km ou mais
Nuvens fragmentadasa uma altura de 2000 ft
Temporariamente
de 20 às 15 UTC a 20 às 17 UTC
Vento 25 kt de su-sudoeste com rajadas de 37 kt
Visibilidade: 6000 m
Nuvens fragmentadasa uma altura de 800 ft
chuva fraca

TAF: EGEO 201456Z 2015/2017 20015KT 9999 BKN020 TEMPO 2015/2017 21025G37KT 6000 -RA BKN008

Observações e previsões do tempo de mais de 4000 aeroportos (mensagens METAR e TAF).

As estações disponíveis são os pontos amarelos e vermelhos sobre o mapa.

Mova o rato sobre o mapa para ver o nome da estação.

Depois clique no ponto para visualizar as observações e previsões meteorológicas.

Para alterar o mapa : clique nos botões verdes com uma cruz preta para aumentar o zoom; no botão verde com uma pitada de zoom; ou nas setas verdes para mapas adjacentes.


METAR-TAF: